Time;durP1;ratioP1;P1;durP2;ratioP2;P2;SDS_P1;SDS_P2;PMS_P1;PMS_P2;Temp;Humidity;BMP_temperature;BMP_pressure;BME280_temperature;BME280_humidity;BME280_pressure;Samples;Min_cycle;Max_cycle;Signal;HPM_P1;HPM_P2
2023/06/05 00:00:35;;;;;;;4.03;1.70;;;;;;;-143.84;57.32;45090.97;5088769;28;20936;-56
2023/06/05 00:03:02;;;;;;;5.27;1.53;;;;;;;-143.84;56.59;45083.34;5088749;28;20984;-55
2023/06/05 00:05:29;;;;;;;8.43;1.97;;;;;;;-143.84;56.25;45087.16;5088618;28;20444;-55
2023/06/05 00:07:56;;;;;;;5.57;1.70;;;;;;;-143.84;55.64;45123.34;5088572;28;20436;-55
2023/06/05 00:10:24;;;;;;;2.70;1.53;;;;;;;-143.84;55.16;45110.00;5088732;28;20436;-55
2023/06/05 00:12:51;;;;;;;5.43;1.93;;;;;;;-143.84;54.95;45096.66;5088485;28;20472;-55
2023/06/05 00:15:18;;;;;;;6.47;1.77;;;;;;;-143.84;54.82;45064.31;5088292;28;20549;-55
2023/06/05 00:17:47;;;;;;;12.23;1.70;;;;;;;-143.84;54.21;45102.38;5088557;28;20847;-55
2023/06/05 00:20:14;;;;;;;6.50;1.73;;;;;;;-143.84;54.06;45089.06;5088309;28;20435;-55
2023/06/05 00:22:44;;;;;;;10.20;1.90;;;;;;;-143.84;53.69;45090.97;5088132;28;20436;-55
2023/06/05 00:25:12;;;;;;;7.23;2.73;;;;;;;-143.84;53.89;45083.34;5088314;28;20440;-55
2023/06/05 00:27:40;;;;;;;2.70;1.80;;;;;;;-143.84;53.73;45092.88;5088321;28;20813;-55
2023/06/05 00:30:08;;;;;;;3.97;1.80;;;;;;;-143.84;53.40;45090.97;5088467;28;20511;-55
2023/06/05 00:32:36;;;;;;;3.00;1.60;;;;;;;-143.84;53.94;45096.66;5088671;28;20432;-55
2023/06/05 00:35:05;;;;;;;3.60;1.43;;;;;;;-143.84;53.98;45096.66;5088321;28;20573;-55
2023/06/05 00:37:33;;;;;;;3.30;1.60;;;;;;;-143.84;54.10;45096.66;5090482;28;20555;-55
2023/06/05 00:40:00;;;;;;;5.00;1.80;;;;;;;-143.84;54.24;45110.00;5092288;28;20468;-55
2023/06/05 00:42:27;;;;;;;4.60;1.70;;;;;;;-143.84;54.00;45089.06;5092390;28;20440;-55
2023/06/05 00:44:54;;;;;;;4.60;1.70;;;;;;;-143.84;53.79;45079.53;5092292;28;20444;-55
2023/06/05 00:47:22;;;;;;;3.37;1.97;;;;;;;-143.84;53.07;45083.34;5092196;28;20445;-55
2023/06/05 00:49:49;;;;;;;6.70;2.00;;;;;;;-143.84;52.89;45087.16;5092146;28;20472;-55
2023/06/05 00:52:18;;;;;;;2.63;1.27;;;;;;;-143.84;52.48;45100.47;5091974;28;20445;-55
2023/06/05 00:54:46;;;;;;;4.50;1.83;;;;;;;-143.84;52.03;45096.66;5091888;28;20445;-56
2023/06/05 00:57:13;;;;;;;1.83;1.67;;;;;;;-143.84;51.59;45073.81;5091727;28;20450;-56
2023/06/05 00:59:44;;;;;;;5.13;2.10;;;;;;;-143.84;51.57;45089.06;5091655;28;20447;-55
2023/06/05 01:02:12;;;;;;;2.70;1.77;;;;;;;-143.84;51.40;45077.63;5091886;28;20531;-55
2023/06/05 01:04:40;;;;;;;3.67;1.70;;;;;;;-143.84;51.60;45075.72;5091726;28;20516;-55
2023/06/05 01:07:08;;;;;;;3.30;1.70;;;;;;;-143.84;51.91;45094.78;5091676;28;20934;-55
2023/06/05 01:09:37;;;;;;;6.90;2.13;;;;;;;-143.84;52.35;45098.56;5091481;28;20471;-56
2023/06/05 01:12:09;;;;;;;4.57;2.13;;;;;;;-143.84;52.62;45090.97;5091626;28;20493;-55
2023/06/05 01:14:40;;;;;;;4.83;2.20;;;;;;;-143.84;52.58;45094.78;5091379;28;20484;-56
2023/06/05 01:17:10;;;;;;;6.47;1.73;;;;;;;-143.84;52.68;45089.06;5091971;28;21407;-55
2023/06/05 01:19:39;;;;;;;7.77;1.93;;;;;;;-143.84;52.53;45087.16;5091200;28;20451;-55
2023/06/05 01:22:06;;;;;;;3.97;1.83;;;;;;;-143.84;52.57;45064.31;5091321;28;20435;-55
2023/06/05 01:24:35;;;;;;;4.10;1.90;;;;;;;-143.84;52.35;45092.88;5091515;28;20463;-55
2023/06/05 01:27:10;;;;;;;2.20;1.63;;;;;;;-143.84;51.96;45098.56;5091266;28;20964;-55
2023/06/05 01:29:48;;;;;;;2.03;1.83;;;;;;;-143.84;51.93;45108.09;5091005;28;20992;-55
2023/06/05 01:32:21;;;;;;;1.87;1.70;;;;;;;-143.84;52.20;45081.44;5092238;28;20450;-55
2023/06/05 01:34:49;;;;;;;3.50;1.50;;;;;;;-143.84;51.95;45094.78;5091962;28;20471;-55
2023/06/05 01:37:19;;;;;;;1.57;1.47;;;;;;;-143.84;52.16;45104.28;5090980;28;20436;-55
2023/06/05 01:39:49;;;;;;;8.50;1.93;;;;;;;-143.84;52.07;45079.53;5090823;28;20448;-55
2023/06/05 01:42:17;;;;;;;12.13;1.93;;;;;;;-143.84;51.89;45070.00;5090684;28;20987;-55
2023/06/05 01:44:45;;;;;;;12.83;1.77;;;;;;;-143.84;51.47;45087.16;5104811;28;20828;-55
2023/06/05 01:47:13;;;;;;;4.90;2.70;;;;;;;-143.84;51.24;45113.81;5111382;28;20496;-55
2023/06/05 01:49:40;;;;;;;2.67;1.90;;;;;;;-143.84;50.84;45090.97;5110615;28;20582;-55
2023/06/05 01:52:08;;;;;;;8.53;2.10;;;;;;;-143.84;50.36;45089.06;5111308;28;20481;-55
2023/06/05 01:54:35;;;;;;;5.80;1.93;;;;;;;-143.84;50.21;45092.88;5111203;28;20831;-55
2023/06/05 01:57:04;;;;;;;5.30;1.77;;;;;;;-143.84;49.96;45104.28;5110990;28;20504;-55
2023/06/05 01:59:31;;;;;;;4.90;2.00;;;;;;;-143.84;49.16;45094.78;5110943;28;20455;-55
2023/06/05 02:01:58;;;;;;;2.60;1.50;;;;;;;-143.84;48.89;45098.56;5105378;28;20440;-55
2023/06/05 02:04:27;;;;;;;4.10;1.30;;;;;;;-143.84;48.63;45096.66;5090381;28;20506;-55
2023/06/05 02:06:54;;;;;;;3.43;1.37;;;;;;;-143.84;48.51;45075.72;5090440;28;20490;-55
2023/06/05 02:09:21;;;;;;;1.73;1.40;;;;;;;-143.84;48.44;45102.38;5090218;28;20572;-55
2023/06/05 02:11:49;;;;;;;5.37;2.03;;;;;;;-143.84;48.06;45083.34;5090255;28;20440;-55
2023/06/05 02:14:19;;;;;;;2.90;1.83;;;;;;;-143.84;47.83;45106.19;5090072;28;21073;-55
2023/06/05 02:16:47;;;;;;;5.73;1.50;;;;;;;-143.84;47.70;45089.06;5090200;28;20942;-55
2023/06/05 02:19:15;;;;;;;3.83;1.67;;;;;;;-143.84;47.62;45102.38;5090088;28;20440;-55
2023/06/05 02:21:42;;;;;;;2.33;1.53;;;;;;;-143.84;47.70;45090.97;5090140;28;20450;-55
2023/06/05 02:24:09;;;;;;;4.97;1.53;;;;;;;-143.84;47.22;45113.81;5090071;28;20485;-55
2023/06/05 02:26:36;;;;;;;8.03;1.47;;;;;;;-143.84;46.59;45081.44;5090108;28;20440;-55
2023/06/05 02:29:03;;;;;;;8.83;1.70;;;;;;;-143.84;46.78;45098.56;5090070;28;20997;-55
2023/06/05 02:31:36;;;;;;;2.43;1.60;;;;;;;-143.84;46.87;45087.16;5089859;28;20437;-55
2023/06/05 02:34:03;;;;;;;4.33;1.50;;;;;;;-143.84;46.81;45081.44;5089740;28;20450;-55
2023/06/05 02:36:32;;;;;;;4.53;1.87;;;;;;;-143.84;46.30;45104.28;5089759;28;20514;-55
2023/06/05 02:39:01;;;;;;;1.70;1.60;;;;;;;-143.84;45.76;45077.63;5090237;28;20529;-55
2023/06/05 02:41:29;;;;;;;2.90;2.00;;;;;;;-143.84;45.35;45079.53;5090177;28;20494;-55
2023/06/05 02:43:56;;;;;;;4.40;1.60;;;;;;;-143.84;45.83;45094.78;5090092;28;20771;-55
2023/06/05 02:46:24;;;;;;;3.20;1.60;;;;;;;-143.84;45.89;45094.78;5089857;28;20527;-55
2023/06/05 02:48:53;;;;;;;3.63;2.63;;;;;;;-143.84;45.39;45087.16;5089697;28;20990;-55
2023/06/05 02:51:20;;;;;;;6.00;2.20;;;;;;;-143.84;45.15;45104.28;5089885;28;20445;-55
2023/06/05 02:53:48;;;;;;;7.90;1.50;;;;;;;-143.84;44.91;45092.88;5089550;28;20936;-55
2023/06/05 02:56:17;;;;;;;8.03;2.13;;;;;;;-143.84;44.94;45111.91;5089722;28;21197;-55
2023/06/05 02:58:45;;;;;;;1.67;1.47;;;;;;;-143.84;44.79;45066.22;5089839;28;20436;-55
2023/06/05 03:01:12;;;;;;;1.50;1.40;;;;;;;-143.84;44.35;45102.38;5088505;28;20441;-56
2023/06/05 03:03:39;;;;;;;4.50;1.50;;;;;;;-143.84;44.56;45096.66;5089271;28;20440;-56
2023/06/05 03:06:08;;;;;;;8.70;1.57;;;;;;;-143.84;44.68;45089.06;5089343;28;20444;-56
2023/06/05 03:08:36;;;;;;;3.47;1.60;;;;;;;-143.84;44.29;45100.47;5089203;28;20448;-55
2023/06/05 03:11:03;;;;;;;4.00;2.10;;;;;;;-143.84;44.38;45108.09;5089550;28;20529;-55
2023/06/05 03:13:32;;;;;;;5.73;1.90;;;;;;;-143.84;44.51;45079.53;5089302;28;20440;-55
2023/06/05 03:16:01;;;;;;;9.13;1.60;;;;;;;-143.84;44.15;45094.78;5089161;28;20469;-55
2023/06/05 03:18:29;;;;;;;12.13;1.70;;;;;;;-143.84;43.98;45100.47;5089310;28;20467;-55
2023/06/05 03:20:56;;;;;;;4.47;2.23;;;;;;;-143.84;43.73;45066.22;5089592;28;20525;-55
2023/06/05 03:23:27;;;;;;;8.83;2.10;;;;;;;-143.84;43.36;45049.06;5089335;28;20436;-55
2023/06/05 03:25:55;;;;;;;5.73;2.13;;;;;;;-143.84;44.36;45081.44;5089553;28;20436;-55
2023/06/05 03:28:23;;;;;;;6.77;2.20;;;;;;;-143.84;43.73;45083.34;5089231;28;20559;-55
2023/06/05 03:30:50;;;;;;;4.23;1.97;;;;;;;-143.84;43.31;45089.06;5089087;28;20476;-55
2023/06/05 03:33:18;;;;;;;2.90;2.10;;;;;;;-143.84;43.55;45077.63;5089022;28;20444;-56
2023/06/05 03:35:46;;;;;;;7.87;1.63;;;;;;;-143.84;41.14;45068.13;5089173;28;20970;-55
2023/06/05 03:38:14;;;;;;;2.90;1.83;;;;;;;-143.84;39.80;45070.00;5089158;28;20462;-55
2023/06/05 03:40:43;;;;;;;2.33;1.57;;;;;;;-143.84;38.12;45052.88;5089075;28;20438;-56
2023/06/05 03:43:10;;;;;;;3.00;2.00;;;;;;;-143.84;36.90;45062.41;5088953;28;20491;-55
2023/06/05 03:45:39;;;;;;;3.47;1.83;;;;;;;-143.84;36.39;45035.75;5089210;28;20457;-55
2023/06/05 03:48:08;;;;;;;7.80;2.50;;;;;;;-143.84;35.28;45045.25;5094218;28;20539;-56
2023/06/05 03:50:38;;;;;;;12.87;1.80;;;;;;;-143.84;34.96;44999.56;5109044;28;20475;-55
2023/06/05 03:53:05;;;;;;;2.30;1.77;;;;;;;-143.84;34.42;45028.13;5109241;28;20521;-56
2023/06/05 03:55:40;;;;;;;5.63;1.63;;;;;;;-143.84;34.48;44969.09;5109302;28;20500;-55
2023/06/05 03:58:13;;;;;;;2.23;1.50;;;;;;;-143.84;33.91;45014.78;5109411;28;20520;-56
2023/06/05 04:00:41;;;;;;;4.60;1.60;;;;;;;-143.84;33.85;45009.09;5109187;28;20440;-56
2023/06/05 04:03:10;;;;;;;5.07;1.50;;;;;;;-143.84;33.41;44988.13;5109119;28;20437;-56
2023/06/05 04:05:38;;;;;;;3.87;1.93;;;;;;;-143.84;33.63;44991.94;5109081;28;21229;-56
2023/06/05 04:08:05;;;;;;;2.80;1.53;;;;;;;-143.84;33.48;45010.97;5109209;28;20437;-55
2023/06/05 04:10:32;;;;;;;3.73;1.73;;;;;;;-143.84;33.14;44993.84;5109160;28;20485;-55
2023/06/05 04:12:59;;;;;;;11.60;2.17;;;;;;;-143.84;33.15;44991.94;5112065;28;20500;-56
2023/06/05 04:15:28;;;;;;;9.33;1.83;;;;;;;-143.84;32.75;44963.38;5112954;28;21369;-56
2023/06/05 04:17:56;;;;;;;4.03;1.63;;;;;;;-143.84;32.97;44990.03;5113100;28;20463;-56
2023/06/05 04:20:23;;;;;;;8.53;1.40;;;;;;;-143.84;32.46;44995.75;5112933;28;21137;-55
2023/06/05 04:22:51;;;;;;;3.77;1.13;;;;;;;-143.84;32.55;44969.09;5112953;28;20857;-56
2023/06/05 04:25:18;;;;;;;4.70;2.30;;;;;;;-143.84;31.97;44957.66;5112705;28;20431;-56
2023/06/05 04:27:48;;;;;;;6.63;1.57;;;;;;;-143.84;32.46;45003.38;5113004;28;20433;-56
2023/06/05 04:30:15;;;;;;;3.70;1.73;;;;;;;-143.84;32.44;44982.41;5112651;28;20489;-56
2023/06/05 04:32:52;;;;;;;4.13;1.57;;;;;;;-143.84;32.32;44959.56;5112722;28;20506;-55
2023/06/05 04:35:20;;;;;;;3.53;2.10;;;;;;;-143.84;32.28;44965.28;5112756;28;20446;-55
2023/06/05 04:37:47;;;;;;;4.20;1.67;;;;;;;-143.84;32.49;44991.94;5113121;28;20439;-56
2023/06/05 04:40:15;;;;;;;7.67;2.00;;;;;;;-143.84;32.48;44988.13;5112530;28;20575;-55
2023/06/05 04:42:42;;;;;;;5.80;1.80;;;;;;;-143.84;32.05;44978.63;5112876;28;20439;-56
2023/06/05 04:45:10;;;;;;;2.17;1.33;;;;;;;-143.84;32.33;44980.53;5112658;28;20524;-55
2023/06/05 04:47:37;;;;;;;4.03;1.70;;;;;;;-143.84;32.40;44969.09;5112428;28;20434;-56
2023/06/05 04:50:08;;;;;;;5.60;1.73;;;;;;;-143.84;32.15;44984.31;5112162;28;20531;-55
2023/06/05 04:52:39;;;;;;;4.83;1.60;;;;;;;-143.84;32.77;44967.19;5112590;28;20488;-56
2023/06/05 04:55:07;;;;;;;7.63;1.53;;;;;;;-143.84;32.65;44969.09;5112145;28;20452;-55
2023/06/05 04:57:34;;;;;;;4.03;1.40;;;;;;;-143.84;32.22;44967.19;5112083;28;20957;-55
2023/06/05 05:00:07;;;;;;;4.90;1.73;;;;;;;-143.84;31.94;44957.66;5112175;28;20431;-55
2023/06/05 05:02:35;;;;;;;3.10;1.40;;;;;;;-143.84;32.31;44978.63;5111894;28;20826;-55
2023/06/05 05:05:02;;;;;;;6.90;1.90;;;;;;;-143.84;32.69;44963.38;5112264;28;20845;-55
2023/06/05 05:07:30;;;;;;;5.13;2.03;;;;;;;-143.84;32.40;44974.81;5112096;28;20520;-56
2023/06/05 05:09:57;;;;;;;5.00;1.60;;;;;;;-143.84;33.00;44980.53;5112118;28;20479;-55
2023/06/05 05:12:25;;;;;;;12.70;1.60;;;;;;;-143.84;32.63;44969.09;5112288;28;20488;-55
2023/06/05 05:14:52;;;;;;;10.60;1.60;;;;;;;-143.84;32.64;44940.53;5111729;28;20490;-55
2023/06/05 05:17:19;;;;;;;5.03;1.43;;;;;;;-143.84;32.47;44961.47;5112218;28;20447;-55
2023/06/05 05:19:46;;;;;;;5.67;1.70;;;;;;;-143.84;31.92;44957.66;5111783;28;20486;-55
2023/06/05 05:22:13;;;;;;;3.73;1.23;;;;;;;-143.84;31.70;44965.28;5111723;28;20443;-56
2023/06/05 05:24:42;;;;;;;7.33;1.50;;;;;;;-143.84;31.67;44957.66;5110711;28;20921;-55
2023/06/05 05:27:09;;;;;;;2.40;1.47;;;;;;;-143.84;31.48;44942.44;5111678;28;20440;-55
2023/06/05 05:29:36;;;;;;;11.03;1.80;;;;;;;-143.84;32.21;44965.28;5111458;28;20499;-55
2023/06/05 05:32:03;;;;;;;3.43;1.43;;;;;;;-143.84;32.18;44982.41;5111671;28;20915;-55
2023/06/05 05:34:30;;;;;;;4.50;1.30;;;;;;;-143.84;31.43;44932.91;5111494;28;20488;-56
2023/06/05 05:36:58;;;;;;;7.43;1.80;;;;;;;-143.84;31.06;44978.63;5111297;28;20428;-55
2023/06/05 05:39:25;;;;;;;14.50;2.10;;;;;;;-143.84;31.53;44961.47;5111483;28;20443;-55
2023/06/05 05:41:53;;;;;;;5.80;1.60;;;;;;;-143.84;31.79;44946.25;5111537;28;20862;-56
2023/06/05 05:44:20;;;;;;;10.23;1.60;;;;;;;-143.84;31.63;44944.34;5111462;28;20939;-55
2023/06/05 05:46:48;;;;;;;3.57;1.60;;;;;;;-143.84;32.20;44955.75;5111436;28;20433;-55
2023/06/05 05:49:15;;;;;;;4.97;1.50;;;;;;;-143.84;32.30;44972.91;5111161;28;20438;-55
2023/06/05 05:51:42;;;;;;;8.90;1.50;;;;;;;-143.84;31.32;44957.66;5111272;28;20530;-56
2023/06/05 05:54:09;;;;;;;6.93;2.17;;;;;;;-143.84;32.32;44948.16;5111149;28;20997;-55
2023/06/05 05:56:36;;;;;;;5.10;1.33;;;;;;;-143.84;31.39;44950.06;5111079;28;20495;-55
2023/06/05 05:59:05;;;;;;;3.00;1.57;;;;;;;-143.84;31.53;44944.34;5111522;28;20857;-55
2023/06/05 06:01:33;;;;;;;2.13;1.60;;;;;;;-143.84;31.46;44971.00;5111123;28;20890;-55
2023/06/05 06:04:00;;;;;;;4.53;1.33;;;;;;;-143.84;30.92;44911.97;5111016;28;20471;-56
2023/06/05 06:06:27;;;;;;;8.33;1.40;;;;;;;-143.84;31.37;44965.28;5110834;28;20459;-55
2023/06/05 06:08:54;;;;;;;6.20;1.80;;;;;;;-143.84;31.74;44940.53;5110846;28;20858;-55
2023/06/05 06:11:21;;;;;;;4.40;1.33;;;;;;;-143.84;31.43;44951.97;5110637;28;20477;-55
2023/06/05 06:13:49;;;;;;;2.23;1.63;;;;;;;-143.84;32.19;44923.41;5110739;28;20485;-55
2023/06/05 06:16:17;;;;;;;3.10;1.63;;;;;;;-143.84;31.08;44950.06;5110500;28;20492;-55
2023/06/05 06:18:45;;;;;;;8.13;1.33;;;;;;;-143.84;30.77;44946.25;5110789;28;20855;-55
2023/06/05 06:21:12;;;;;;;10.20;1.73;;;;;;;-143.84;30.70;44934.81;5110772;28;20448;-55
2023/06/05 06:23:39;;;;;;;2.37;1.33;;;;;;;-143.84;30.84;44955.75;5110565;28;20777;-55
2023/06/05 06:26:07;;;;;;;6.63;1.53;;;;;;;-143.84;31.08;44950.06;5110300;28;20451;-56
2023/06/05 06:28:34;;;;;;;3.77;1.80;;;;;;;-143.84;31.38;44944.34;5110489;28;20442;-55
2023/06/05 06:31:01;;;;;;;2.33;1.20;;;;;;;-143.84;31.31;44963.38;5110462;28;20503;-55
2023/06/05 06:33:30;;;;;;;2.07;1.40;;;;;;;-143.84;31.65;44938.63;5110650;28;20511;-55
2023/06/05 06:35:58;;;;;;;6.10;1.40;;;;;;;-143.84;32.06;44951.97;5110442;28;20448;-55
2023/06/05 06:38:30;;;;;;;12.13;1.63;;;;;;;-143.84;31.47;44953.88;5110446;28;20448;-55
2023/06/05 06:40:57;;;;;;;1.80;1.43;;;;;;;-143.84;31.34;44946.25;5110234;28;20449;-55
2023/06/05 06:43:24;;;;;;;4.37;1.57;;;;;;;-143.84;31.68;44934.81;5109935;28;21261;-55
2023/06/05 06:45:53;;;;;;;8.50;1.70;;;;;;;-143.84;32.26;44953.88;5110229;28;20490;-55
2023/06/05 06:48:20;;;;;;;8.23;1.53;;;;;;;-143.84;33.20;44957.66;5109970;28;20443;-55
2023/06/05 06:50:49;;;;;;;2.60;1.33;;;;;;;-143.84;31.93;44944.34;5110157;28;21167;-55
2023/06/05 06:53:16;;;;;;;2.90;1.50;;;;;;;-143.84;31.86;44969.09;5110156;28;20467;-56
2023/06/05 06:55:43;;;;;;;5.53;1.73;;;;;;;-143.84;32.63;44946.25;5110014;28;20447;-55
2023/06/05 06:58:10;;;;;;;2.03;1.83;;;;;;;-143.84;33.04;44929.09;5110130;28;20515;-56
2023/06/05 07:00:37;;;;;;;9.20;1.53;;;;;;;-143.84;32.60;44957.66;5109829;28;20931;-56
2023/06/05 07:03:04;;;;;;;4.70;1.40;;;;;;;-143.84;33.21;44951.97;5109739;28;20446;-55
2023/06/05 07:05:32;;;;;;;6.87;1.90;;;;;;;-143.84;32.77;44967.19;5109852;28;20881;-55
2023/06/05 07:08:01;;;;;;;7.23;1.57;;;;;;;-143.84;32.51;44972.91;5110241;28;20484;-56
2023/06/05 07:10:29;;;;;;;5.50;1.40;;;;;;;-143.84;32.34;44929.09;5109374;28;20943;-55
2023/06/05 07:12:56;;;;;;;2.87;1.33;;;;;;;-143.84;32.03;44950.06;5109623;28;20446;-56
2023/06/05 07:15:24;;;;;;;10.10;1.97;;;;;;;-143.84;32.49;44946.25;5109461;28;20539;-56
2023/06/05 07:17:51;;;;;;;2.63;1.40;;;;;;;-143.84;32.42;44959.56;5109518;28;21024;-56
2023/06/05 07:20:18;;;;;;;5.27;1.87;;;;;;;-143.84;33.30;44944.34;5109453;28;20950;-56
2023/06/05 07:22:46;;;;;;;5.60;2.10;;;;;;;-143.84;32.97;44929.09;5097242;28;20437;-56
2023/06/05 07:25:16;;;;;;;6.30;1.20;;;;;;;-143.84;32.67;44946.25;5089363;28;21123;-55
2023/06/05 07:27:45;;;;;;;4.10;1.63;;;;;;;-143.84;32.97;44942.44;5089118;28;20562;-56
2023/06/05 07:30:13;;;;;;;6.23;1.63;;;;;;;-143.84;33.12;44953.88;5089177;28;20454;-56
2023/06/05 07:32:42;;;;;;;3.67;1.63;;;;;;;-143.84;32.97;44971.00;5089095;28;20444;-56
2023/06/05 07:35:10;;;;;;;7.00;1.90;;;;;;;-143.84;32.78;44955.75;5089053;28;20534;-55
2023/06/05 07:37:37;;;;;;;4.10;1.87;;;;;;;-143.84;33.82;44961.47;5089202;28;20440;-56
2023/06/05 07:40:05;;;;;;;8.20;2.10;;;;;;;-143.84;33.48;44951.97;5089159;28;20943;-56
2023/06/05 07:42:34;;;;;;;8.73;2.30;;;;;;;-143.84;33.36;44942.44;5088832;28;20453;-56
2023/06/05 07:45:01;;;;;;;5.73;1.60;;;;;;;-143.84;33.62;44953.88;5088813;28;20444;-55
2023/06/05 07:47:28;;;;;;;2.13;1.80;;;;;;;-143.84;35.19;44963.38;5090869;28;20432;-56
2023/06/05 07:49:59;;;;;;;14.27;1.70;;;;;;;-143.84;34.90;44972.91;5093340;28;20436;-56
2023/06/05 07:52:27;;;;;;;10.50;2.00;;;;;;;-143.84;35.32;44959.56;5092997;28;20484;-56
2023/06/05 07:54:54;;;;;;;4.03;1.60;;;;;;;-143.84;34.51;44978.63;5093093;28;20436;-56
2023/06/05 07:57:23;;;;;;;1.97;1.27;;;;;;;-143.84;34.50;44974.81;5092468;28;20436;-56
2023/06/05 07:59:53;;;;;;;2.13;1.83;;;;;;;-143.84;34.37;44972.91;5093323;28;20444;-55
2023/06/05 08:02:20;;;;;;;12.57;1.50;;;;;;;-143.84;33.80;44946.25;5092919;28;20451;-56
2023/06/05 08:04:48;;;;;;;17.93;1.87;;;;;;;-143.84;33.56;44967.19;5093154;28;20436;-56
2023/06/05 08:07:15;;;;;;;3.30;1.40;;;;;;;-143.84;33.43;44946.25;5092994;28;20447;-55
2023/06/05 08:09:42;;;;;;;2.30;1.40;;;;;;;-143.84;32.97;44957.66;5092745;28;20436;-55
2023/06/05 08:12:10;;;;;;;7.43;1.60;;;;;;;-143.84;33.60;44971.00;5092853;28;20537;-55
2023/06/05 08:14:37;;;;;;;2.23;1.53;;;;;;;-143.84;32.79;44971.00;5092839;28;20549;-56
2023/06/05 08:17:06;;;;;;;3.47;1.03;;;;;;;-143.84;33.15;44961.47;5092688;28;20428;-56
2023/06/05 08:19:33;;;;;;;7.03;1.50;;;;;;;-143.84;33.26;44957.66;5093057;28;21245;-56
2023/06/05 08:22:00;;;;;;;1.73;1.57;;;;;;;-143.84;33.29;44951.97;5092738;28;20508;-56
2023/06/05 08:24:28;;;;;;;3.03;1.60;;;;;;;-143.84;33.03;44959.56;5092488;28;20451;-55
2023/06/05 08:26:56;;;;;;;5.03;1.90;;;;;;;-143.84;33.09;44946.25;5092817;28;20928;-55
2023/06/05 08:29:23;;;;;;;3.00;1.37;;;;;;;-143.84;33.39;44934.81;5092496;28;20440;-55
2023/06/05 08:31:50;;;;;;;6.20;1.83;;;;;;;-143.84;33.43;44974.81;5092579;28;20480;-55
2023/06/05 08:34:18;;;;;;;9.27;1.53;;;;;;;-143.84;33.74;44953.88;5092244;28;20958;-55
2023/06/05 08:36:46;;;;;;;3.00;1.50;;;;;;;-143.84;33.05;44978.63;5092297;28;20444;-55
2023/06/05 08:39:13;;;;;;;3.10;1.63;;;;;;;-143.84;33.10;44974.81;5092119;28;20441;-55
2023/06/05 08:41:43;;;;;;;7.80;1.83;;;;;;;-143.84;33.85;44953.88;5092360;28;20538;-55
2023/06/05 08:44:13;;;;;;;5.43;1.50;;;;;;;-143.84;34.51;44961.47;5092281;28;20440;-55
2023/06/05 08:46:41;;;;;;;6.33;1.73;;;;;;;-143.84;33.61;44976.72;5092423;28;20517;-56
2023/06/05 08:49:11;;;;;;;4.17;2.03;;;;;;;-143.84;33.90;44951.97;5092018;28;20436;-55
2023/06/05 08:51:41;;;;;;;3.20;1.33;;;;;;;-143.84;32.23;44934.81;5091844;28;20537;-56
2023/06/05 08:54:13;;;;;;;4.80;1.57;;;;;;;-143.84;33.94;44938.63;5091804;28;20540;-55
2023/06/05 08:56:41;;;;;;;9.83;1.23;;;;;;;-143.84;34.27;44948.16;5091939;28;20440;-56
2023/06/05 08:59:08;;;;;;;1.97;1.10;;;;;;;-143.84;33.67;44963.38;5091661;28;20432;-56
2023/06/05 09:01:37;;;;;;;14.20;1.70;;;;;;;-143.84;33.91;44948.16;5091780;28;20522;-55
2023/06/05 09:04:04;;;;;;;6.90;1.90;;;;;;;-143.84;32.57;44969.09;5091922;28;20440;-55
2023/06/05 09:06:33;;;;;;;5.53;1.70;;;;;;;-143.84;32.73;44963.38;5092184;28;20436;-55
2023/06/05 09:09:02;;;;;;;3.77;1.80;;;;;;;-143.84;32.41;44971.00;5091523;28;20448;-55
2023/06/05 09:11:30;;;;;;;3.20;1.70;;;;;;;-143.84;32.90;44991.94;5091725;28;20480;-56
2023/06/05 09:13:59;;;;;;;4.43;1.60;;;;;;;-143.84;32.94;44959.56;5091589;28;20452;-55
2023/06/05 09:16:35;;;;;;;6.87;1.80;;;;;;;-143.84;33.30;44963.38;5091567;28;20440;-55
2023/06/05 09:19:02;;;;;;;4.93;1.53;;;;;;;-143.84;33.37;44944.34;5091402;28;20444;-55
2023/06/05 09:21:32;;;;;;;3.37;1.83;;;;;;;-143.84;32.05;44955.75;5091584;28;20986;-55
2023/06/05 09:24:15;;;;;;;6.17;1.97;;;;;;;-143.84;33.01;44976.72;5090948;28;20535;-55
2023/06/05 09:26:51;;;;;;;7.97;1.57;;;;;;;-143.84;33.28;44953.88;5090635;28;20452;-55
2023/06/05 09:29:23;;;;;;;5.20;1.70;;;;;;;-143.84;32.89;44934.81;5091186;28;20950;-55
2023/06/05 09:31:51;;;;;;;3.47;1.43;;;;;;;-143.84;32.44;44980.53;5090849;28;20491;-55
2023/06/05 09:34:25;;;;;;;1.70;1.60;;;;;;;-143.84;32.69;44965.28;5091174;28;20444;-55
2023/06/05 09:36:54;;;;;;;9.37;1.37;;;;;;;-143.84;32.55;44978.63;5091447;28;20443;-55
2023/06/05 09:39:24;;;;;;;3.70;1.70;;;;;;;-143.84;31.55;44953.88;5091122;28;20444;-55
2023/06/05 09:41:52;;;;;;;7.33;1.70;;;;;;;-143.84;32.00;44972.91;5090708;28;20849;-55
2023/06/05 09:44:20;;;;;;;4.40;1.70;;;;;;;-143.84;31.96;44942.44;5091309;28;20517;-55
2023/06/05 09:46:58;;;;;;;19.40;3.23;;;;;;;-143.84;32.40;44967.19;5090880;28;20441;-55
2023/06/05 09:49:27;;;;;;;3.97;1.50;;;;;;;-143.84;32.65;44976.72;5091005;28;20439;-55
2023/06/05 09:51:55;;;;;;;5.60;1.47;;;;;;;-143.84;32.94;44993.84;5090803;28;20574;-55
2023/06/05 09:54:27;;;;;;;10.37;1.80;;;;;;;-143.84;33.71;44984.31;5090804;28;20443;-55
2023/06/05 09:56:58;;;;;;;2.07;1.40;;;;;;;-143.84;33.19;44978.63;5090872;28;20496;-55
2023/06/05 09:59:31;;;;;;;2.50;1.10;;;;;;;-143.84;33.95;44965.28;5090680;28;20432;-55
2023/06/05 10:02:01;;;;;;;4.30;1.63;;;;;;;-143.84;32.92;44991.94;5090695;28;20442;-55
2023/06/05 10:04:29;;;;;;;17.43;1.33;;;;;;;-143.84;33.66;44967.19;5090398;28;20455;-56
2023/06/05 10:07:02;;;;;;;2.43;1.50;;;;;;;-143.84;33.68;44965.28;5090391;28;20471;-55
2023/06/05 10:09:32;;;;;;;2.80;1.73;;;;;;;-143.84;32.34;44959.56;5090124;28;20445;-55
2023/06/05 10:12:00;;;;;;;2.67;1.17;;;;;;;-143.84;31.26;44967.19;5090361;28;20480;-55
2023/06/05 10:14:28;;;;;;;6.97;1.60;;;;;;;-143.84;32.29;44971.00;5090230;28;20565;-55
2023/06/05 10:16:56;;;;;;;6.13;1.57;;;;;;;-143.84;32.94;44990.03;5090347;28;20500;-55
2023/06/05 10:19:24;;;;;;;3.97;1.00;;;;;;;-143.84;33.06;44940.53;5090437;28;21114;-56
2023/06/05 10:21:52;;;;;;;6.17;1.20;;;;;;;-143.84;33.45;44982.41;5090153;28;20867;-55
2023/06/05 10:24:23;;;;;;;3.13;1.30;;;;;;;-143.84;33.60;44953.88;5090350;28;20493;-55
2023/06/05 10:27:18;;;;;;;7.97;1.13;;;;;;;-143.84;33.57;44965.28;5090207;28;20446;-55
2023/06/05 10:30:01;;;;;;;6.93;1.40;;;;;;;-143.84;34.35;44972.91;5090582;28;20492;-55
2023/06/05 10:32:41;;;;;;;4.80;1.33;;;;;;;-143.84;34.00;44934.81;5089909;28;20482;-55
2023/06/05 10:35:21;;;;;;;1.53;1.27;;;;;;;-143.84;34.05;44957.66;5090158;28;21293;-55
2023/06/05 10:37:59;;;;;;;6.17;1.40;;;;;;;-143.84;33.67;44984.31;5089919;28;20446;-55
2023/06/05 10:40:27;;;;;;;2.70;1.43;;;;;;;-143.84;33.62;44969.09;5089888;28;20440;-55
2023/06/05 10:43:16;;;;;;;6.27;1.20;;;;;;;-143.84;33.54;44967.19;5089943;28;20493;-55
2023/06/05 10:45:43;;;;;;;1.47;1.10;;;;;;;-143.84;34.08;44995.75;5089734;28;20525;-55
2023/06/05 10:48:10;;;;;;;1.20;1.03;;;;;;;-143.84;33.80;44984.31;5089668;28;20444;-55
2023/06/05 10:50:37;;;;;;;3.03;1.53;;;;;;;-143.84;32.97;44993.84;5089580;28;20478;-55
2023/06/05 10:53:05;;;;;;;9.90;1.87;;;;;;;-143.84;33.04;44980.53;5089917;28;20474;-55
2023/06/05 10:55:43;;;;;;;2.90;1.77;;;;;;;-143.84;31.63;44972.91;5089917;28;20518;-55
2023/06/05 10:58:15;;;;;;;2.43;1.00;;;;;;;-143.84;32.46;44991.94;5089693;28;20465;-55
2023/06/05 11:01:14;;;;;;;3.20;1.40;;;;;;;-143.84;32.15;44986.22;5095887;28;20461;-55
2023/06/05 11:03:57;;;;;;;5.43;1.60;;;;;;;-143.84;32.75;44997.66;5110223;28;20474;-55
2023/06/05 11:06:25;;;;;;;6.23;1.10;;;;;;;-143.84;33.68;44995.75;5107867;28;21102;-55
2023/06/05 11:09:07;;;;;;;1.57;1.23;;;;;;;-143.84;33.11;44980.53;5110109;28;20811;-55
2023/06/05 11:11:56;;;;;;;7.33;0.90;;;;;;;-143.84;34.23;44988.13;5109753;28;20539;-59
2023/06/05 11:14:24;;;;;;;2.77;1.57;;;;;;;-143.84;33.77;44988.13;5109736;28;20487;-58
2023/06/05 11:16:52;;;;;;;7.37;1.70;;;;;;;-143.84;33.94;44978.63;5109735;28;20462;-59
2023/06/05 11:19:38;;;;;;;1.73;1.10;;;;;;;-143.84;33.73;44982.41;5109510;28;20446;-59
2023/06/05 11:22:08;;;;;;;4.93;1.50;;;;;;;-143.84;35.05;44978.63;5108925;28;20972;-59
2023/06/05 11:24:36;;;;;;;3.60;1.43;;;;;;;-143.84;34.98;44988.13;5109637;28;20430;-59